Airfield :







YOU CAN JOIN US ON...

 
LOGIN :

Register | Disclaimer

   EN    FR    IT 

 









Legend :    VFR   Marginal VFR   IFR   Intensive IFR   Very Intensive IFR
Visi :
Ceiling :
>= 8 km
>= 3000ft
5 to 8 km
1000 to 3000 ft
1500m to 5 km
500 to 1000 ft
800 to 1500m
200 to 500 ft
< 800m
< 200 ft
Symbols :   Thunderstorms  Fog  Heavy snow  Heavy precipitations  Wind > 20 kt






- Airport Elevation : 71 ft
- IATA code : YBC


CYBC - Baie Comeau

CURRENT METAR :
  • 151200Z AUTO 12004KT 060V130 1 1/4SM -RA BR OVC010 01/01 A2873 RMK PCPN 0.8MM PAST HR SLP733

EXPIRED METARs :
  • 151143Z AUTO 09006KT 1SM -RA BR OVC010 01/01 A2874 RMK SLP736
  • 151100Z AUTO 08009KT 1 1/2SM -RA BR BKN010 OVC014 01/01 A2876 RMK SLP741
  • 151029Z AUTO 06010KT 1 3/4SM -RA BR OVC008 01/01 A2879 RMK SLP751
  • 151004Z AUTO 07009KT 2SM -RA BR BKN008 OVC012 00/00 A2880 RMK PRESFR SLP754
  • 150950Z AUTO 06011KT 1 3/4SM -RA BR BKN010 OVC013 00/00 A2881 RMK VIS VRB 1 1/2-2 1/2 PRESFR SLP759
  • 150934Z AUTO 07010G16KT 2SM -RA BR OVC010 00/00 A2883 RMK SLP764

TAF TAF CYBC
Valid from the 15 at 08:00 until the 15 at 20:00 UTC


150738Z 1508/1520 07020G30KT 1SM -SNRA BR BKN007
TEMPO 1508/1509 6SM -RA BR OVC012
FM150900 07020G30KT 6SM -RA BR OVC007
TEMPO 1509/1512 1SM RA BR OVC003
BECMG 1510/1512 07015G25KT
FM151200 07015G25KT 1SM -RA BR OVC003
TEMPO 1512/1515 6SM -RA BR OVC007
BECMG 1512/1514 22025G40KT
FM151500 22025G45KT 2SM -RASNPL BR OVC007
FM151900 27025G45KT 2SM -SN OVC020 RMK FCST BASED ON AUTO OBS. NXT FCST BY 151400Z



MET'MAP, your aeronautical weather chart ! - Copyright ORBIFLY December 2007 - Disclaimer

ORBIFLY MET'MAP TEAM :

Programming & Development : Alexandra Zaïnal
Concept & original design : Baudouin d'Aumeries
Assistance for programming : Marc-Olivier Méhu
Technical & hardware support : Manuel Goepfert

Contact : metmap@orbifly.com




SOURCES & CREDITS :

   NOAA